createdAt,value
2023-03-11T00:02:19.757Z,67.93
2023-03-11T00:04:49.503Z,67.40
2023-03-11T00:07:19.135Z,63.90
2023-03-11T00:09:48.797Z,59.28
2023-03-11T00:12:18.379Z,64.15
2023-03-11T00:14:47.969Z,51.47
2023-03-11T00:17:17.570Z,55.10
2023-03-11T00:19:47.220Z,49.88
2023-03-11T00:22:16.851Z,50.28
2023-03-11T00:24:46.481Z,46.35
2023-03-11T00:27:16.099Z,39.15
2023-03-11T00:29:45.648Z,39.35
2023-03-11T00:32:15.488Z,40.38
2023-03-11T00:34:45.101Z,38.25
2023-03-11T00:37:14.742Z,30.00
2023-03-11T00:39:44.262Z,35.38
2023-03-11T00:42:13.855Z,32.85
2023-03-11T00:44:44.071Z,34.13
2023-03-11T00:47:14.106Z,28.65
2023-03-11T00:49:43.845Z,28.45
2023-03-11T00:52:13.422Z,27.90
2023-03-11T00:54:43.116Z,28.75
2023-03-11T00:57:12.737Z,23.02
2023-03-11T00:59:42.303Z,24.30
2023-03-11T01:02:11.860Z,20.85
2023-03-11T01:04:41.600Z,23.20
2023-03-11T01:07:11.472Z,22.67
2023-03-11T01:09:41.159Z,19.30
2023-03-11T01:12:10.917Z,21.58
2023-03-11T01:14:40.515Z,20.02
2023-03-11T01:17:10.125Z,21.98
2023-03-11T01:19:39.696Z,19.33
2023-03-11T01:22:09.288Z,18.65
2023-03-11T01:24:38.870Z,20.63
2023-03-11T01:27:08.567Z,16.58
2023-03-11T01:29:38.193Z,16.92
2023-03-11T01:32:08.476Z,19.42
2023-03-11T01:34:38.201Z,15.52
2023-03-11T01:37:07.873Z,14.77
2023-03-11T01:39:37.516Z,15.65
2023-03-11T01:42:07.451Z,12.43
2023-03-11T01:44:37.041Z,11.02
2023-03-11T01:47:06.591Z,12.18
2023-03-11T01:49:36.197Z,13.40
2023-03-11T01:52:09.235Z,15.75
2023-03-11T01:54:40.899Z,11.63
2023-03-11T01:57:12.825Z,10.93
2023-03-11T01:59:44.600Z,10.45
2023-03-11T02:02:32.151Z,12.10
2023-03-11T02:05:03.215Z,10.55
2023-03-11T02:07:32.963Z,12.93
2023-03-11T02:10:03.706Z,9.80
2023-03-11T02:12:34.130Z,12.43
2023-03-11T02:15:03.846Z,9.07
2023-03-11T02:17:34.661Z,10.48
2023-03-11T02:20:30.257Z,12.50
2023-03-11T02:22:59.856Z,12.43
2023-03-11T02:25:41.492Z,12.05
2023-03-11T02:28:12.584Z,10.40
2023-03-11T02:30:45.315Z,9.18
2023-03-11T02:33:15.344Z,7.95
2023-03-11T02:35:45.102Z,7.70
2023-03-11T02:38:15.577Z,9.65
2023-03-11T02:40:54.093Z,8.98
2023-03-11T02:43:29.708Z,10.18
2023-03-11T02:45:59.324Z,11.77
2023-03-11T02:48:28.887Z,10.00
2023-03-11T02:50:58.490Z,10.38
2023-03-11T02:53:29.725Z,7.72
2023-03-11T02:55:59.312Z,8.40
2023-03-11T02:58:28.913Z,11.27
2023-03-11T03:00:58.551Z,10.07
2023-03-11T03:03:28.161Z,12.20
2023-03-11T03:05:57.721Z,12.10
2023-03-11T03:08:27.354Z,9.02
2023-03-11T03:10:57.010Z,8.30
2023-03-11T03:13:26.730Z,9.80
2023-03-11T03:15:56.517Z,10.55
2023-03-11T03:18:26.166Z,10.68
2023-03-11T03:20:55.819Z,10.68
2023-03-11T03:23:25.444Z,7.90
2023-03-11T03:25:55.112Z,10.35
2023-03-11T03:28:24.717Z,8.57
2023-03-11T03:30:54.261Z,11.07
2023-03-11T03:33:23.868Z,13.18
2023-03-11T03:35:53.521Z,9.43
2023-03-11T03:38:23.142Z,9.85
2023-03-11T03:40:52.820Z,10.75
2023-03-11T03:43:22.394Z,7.18
2023-03-11T03:46:02.234Z,11.52
2023-03-11T03:48:32.012Z,9.98
2023-03-11T03:51:12.129Z,9.57
2023-03-11T03:53:41.808Z,11.13
2023-03-11T03:56:15.947Z,9.07
2023-03-11T04:01:14.851Z,10.30
2023-03-11T04:03:44.641Z,11.20
2023-03-11T04:06:19.482Z,12.75
2023-03-11T04:08:49.134Z,10.30
2023-03-11T04:11:18.700Z,8.25
2023-03-11T04:13:48.433Z,8.95
2023-03-11T04:16:24.775Z,8.27
2023-03-11T04:18:54.452Z,8.27
2023-03-11T04:21:24.049Z,9.75
2023-03-11T04:23:53.626Z,15.27
2023-03-11T04:26:23.242Z,10.05
2023-03-11T04:28:52.837Z,9.23
2023-03-11T04:31:22.475Z,8.55
2023-03-11T04:33:52.100Z,11.07
2023-03-11T04:36:21.821Z,10.30
2023-03-11T04:38:51.406Z,8.20
2023-03-11T04:41:21.109Z,9.38
2023-03-11T04:43:50.770Z,7.65
2023-03-11T04:46:20.375Z,6.63
2023-03-11T04:48:50.080Z,10.00
2023-03-11T04:51:19.722Z,7.70
2023-03-11T04:53:49.325Z,6.35
2023-03-11T04:56:18.841Z,11.18
2023-03-11T04:58:48.392Z,10.50
2023-03-11T05:01:18.125Z,9.45
2023-03-11T05:03:48.653Z,8.23
2023-03-11T05:06:18.239Z,8.02
2023-03-11T05:08:48.050Z,6.75
2023-03-11T05:11:17.669Z,10.10
2023-03-11T05:13:47.314Z,8.13
2023-03-11T05:16:16.961Z,7.93
2023-03-11T05:18:46.678Z,9.02
2023-03-11T05:21:16.468Z,8.27
2023-03-11T05:23:46.949Z,5.75
2023-03-11T05:26:16.526Z,8.65
2023-03-11T05:28:46.115Z,6.70
2023-03-11T05:31:15.788Z,7.03
2023-03-11T05:33:45.447Z,6.75
2023-03-11T05:36:15.056Z,7.15
2023-03-11T05:38:44.672Z,6.75
2023-03-11T05:41:14.224Z,10.13
2023-03-11T05:43:43.824Z,6.15
2023-03-11T05:46:14.497Z,12.00
2023-03-11T05:48:44.188Z,6.38
2023-03-11T05:51:13.926Z,6.82
2023-03-11T05:53:50.329Z,7.45
2023-03-11T05:56:21.834Z,9.55
2023-03-11T05:58:51.481Z,7.35
2023-03-11T06:01:22.402Z,8.77
2023-03-11T06:03:52.078Z,5.20
2023-03-11T06:06:22.177Z,6.70
2023-03-11T06:08:51.834Z,8.45
2023-03-11T06:11:21.548Z,7.75
2023-03-11T06:13:51.156Z,6.00
2023-03-11T06:16:20.883Z,7.47
2023-03-11T06:18:50.791Z,6.93
2023-03-11T06:21:22.116Z,6.10
2023-03-11T06:23:52.141Z,6.53
2023-03-11T06:26:22.459Z,6.38
2023-03-11T06:28:52.324Z,7.05
2023-03-11T06:31:24.187Z,4.82
2023-03-11T06:33:53.936Z,5.65
2023-03-11T06:36:23.543Z,5.63
2023-03-11T06:38:56.157Z,6.65
2023-03-11T06:41:25.715Z,8.63
2023-03-11T06:43:55.414Z,8.48
2023-03-11T06:46:25.494Z,5.43
2023-03-11T06:48:55.093Z,4.57
2023-03-11T06:51:24.774Z,4.93
2023-03-11T06:53:55.398Z,9.15
2023-03-11T06:56:25.234Z,4.60
2023-03-11T06:58:55.220Z,4.53
2023-03-11T07:01:26.214Z,6.63
2023-03-11T07:03:55.902Z,5.63
2023-03-11T07:06:27.560Z,6.22
2023-03-11T07:08:57.215Z,7.85
2023-03-11T07:11:27.940Z,3.92
2023-03-11T07:13:57.597Z,4.32
2023-03-11T07:16:28.658Z,5.35
2023-03-11T07:19:00.624Z,5.38
2023-03-11T07:21:31.213Z,5.50
2023-03-11T07:24:02.291Z,7.22
2023-03-11T07:26:32.369Z,6.45
2023-03-11T07:29:01.987Z,5.35
2023-03-11T07:31:33.641Z,5.55
2023-03-11T07:34:04.890Z,7.45
2023-03-11T07:36:34.661Z,5.78
2023-03-11T07:39:06.164Z,4.70
2023-03-11T07:41:36.985Z,4.75
2023-03-11T07:44:08.123Z,6.18
2023-03-11T07:46:39.437Z,8.05
2023-03-11T07:49:09.140Z,7.72
2023-03-11T07:51:39.761Z,5.72
2023-03-11T07:54:09.398Z,7.20
2023-03-11T07:56:38.960Z,10.55
2023-03-11T07:59:08.555Z,6.50
2023-03-11T08:01:38.162Z,5.63
2023-03-11T08:04:08.698Z,8.00
2023-03-11T08:06:38.969Z,10.75
2023-03-11T08:09:10.553Z,8.20
2023-03-11T08:11:40.355Z,6.25
2023-03-11T08:14:10.495Z,9.38
2023-03-11T08:16:41.393Z,11.25
2023-03-11T08:19:13.780Z,9.88
2023-03-11T08:21:43.450Z,10.02
2023-03-11T08:24:14.447Z,10.43
2023-03-11T08:26:44.156Z,7.53
2023-03-11T08:29:13.782Z,8.95
2023-03-11T08:31:43.420Z,10.48
2023-03-11T08:34:13.163Z,12.60
2023-03-11T08:36:42.884Z,10.27
2023-03-11T08:39:12.473Z,8.23
2023-03-11T08:41:42.130Z,8.73
2023-03-11T08:44:11.793Z,7.20
2023-03-11T08:46:41.748Z,10.80
2023-03-11T08:49:11.537Z,9.00
2023-03-11T08:51:41.169Z,11.65
2023-03-11T08:54:10.782Z,8.50
2023-03-11T08:56:40.443Z,9.63
2023-03-11T08:59:10.217Z,11.10
2023-03-11T09:01:39.874Z,11.95
2023-03-11T09:04:09.578Z,11.25
2023-03-11T09:06:39.221Z,9.82
2023-03-11T09:09:08.795Z,11.00
2023-03-11T09:11:38.990Z,11.13
2023-03-11T09:14:08.556Z,12.10
2023-03-11T09:16:38.197Z,8.60
2023-03-11T09:19:09.030Z,7.78
2023-03-11T09:21:39.223Z,12.20
2023-03-11T09:24:09.388Z,10.93
2023-03-11T09:26:38.954Z,13.88
2023-03-11T09:29:08.555Z,9.23
2023-03-11T09:31:40.112Z,11.05
2023-03-11T09:34:09.723Z,9.88
2023-03-11T09:36:39.389Z,12.25
2023-03-11T09:39:09.041Z,13.63
2023-03-11T09:41:58.918Z,10.18
2023-03-11T09:45:06.586Z,11.18
2023-03-11T09:47:40.784Z,11.20
2023-03-11T09:53:11.946Z,9.15
2023-03-11T09:56:08.237Z,10.05
2023-03-11T09:58:46.886Z,9.35
2023-03-11T10:01:20.812Z,10.50
2023-03-11T10:03:50.609Z,9.82
2023-03-11T10:06:20.900Z,10.13
2023-03-11T10:09:19.711Z,9.95
2023-03-11T10:12:27.513Z,11.15
2023-03-11T10:15:30.027Z,9.00
2023-03-11T10:18:00.335Z,10.20
2023-03-11T10:20:33.431Z,12.77
2023-03-11T10:23:24.388Z,10.90
2023-03-11T10:26:05.893Z,9.80
2023-03-11T10:28:40.664Z,7.82
2023-03-11T10:31:38.712Z,10.40
2023-03-11T10:34:28.790Z,11.55
2023-03-11T10:36:58.321Z,10.73
2023-03-11T10:39:28.043Z,15.02
2023-03-11T10:42:05.101Z,10.40
2023-03-11T10:44:38.453Z,14.98
2023-03-11T10:47:09.258Z,13.10
2023-03-11T10:49:38.823Z,12.50
2023-03-11T10:52:08.700Z,9.75
2023-03-11T10:54:41.222Z,9.65
2023-03-11T10:57:40.313Z,10.63
2023-03-11T11:00:18.760Z,9.18
2023-03-11T11:03:05.942Z,13.30
2023-03-11T11:05:36.804Z,11.75
2023-03-11T11:08:19.272Z,12.77
2023-03-11T11:11:12.272Z,9.80
2023-03-11T11:13:41.880Z,15.75
2023-03-11T11:16:23.746Z,13.50
2023-03-11T11:19:01.965Z,13.10
2023-03-11T11:21:45.752Z,13.38
2023-03-11T11:24:25.976Z,15.85
2023-03-11T11:27:13.700Z,13.02
2023-03-11T11:29:43.621Z,14.63
2023-03-11T11:32:42.705Z,17.02
2023-03-11T11:35:21.345Z,16.27
2023-03-11T11:37:56.189Z,16.10
2023-03-11T11:40:31.435Z,18.80
2023-03-11T11:43:07.538Z,16.70
2023-03-11T11:45:59.438Z,23.35
2023-03-11T11:48:35.686Z,15.85
2023-03-11T11:51:10.435Z,19.90
2023-03-11T11:53:44.016Z,22.85
2023-03-11T11:56:13.638Z,21.40
2023-03-11T11:58:43.245Z,18.58
2023-03-11T12:01:21.613Z,22.00
2023-03-11T12:04:00.001Z,22.15
2023-03-11T12:06:37.695Z,23.67
2023-03-11T12:09:28.676Z,27.70
2023-03-11T12:12:07.361Z,25.05
2023-03-11T12:15:00.851Z,22.83
2023-03-11T12:17:30.408Z,24.77
2023-03-11T12:20:10.191Z,22.08
2023-03-11T12:22:54.576Z,27.25
2023-03-11T12:25:51.400Z,25.90
2023-03-11T12:28:36.704Z,26.02
2023-03-11T12:31:10.572Z,29.88
2023-03-11T12:33:44.337Z,30.27
2023-03-11T12:36:43.585Z,27.30
2023-03-11T12:39:22.330Z,24.30
2023-03-11T12:41:52.062Z,25.92
2023-03-11T12:44:31.232Z,29.33
2023-03-11T12:47:00.751Z,25.48
2023-03-11T12:49:53.392Z,26.38
2023-03-11T12:52:28.065Z,28.92
2023-03-11T12:55:03.644Z,29.10
2023-03-11T12:57:39.409Z,29.38
2023-03-11T13:00:27.343Z,31.45
2023-03-11T13:03:31.105Z,28.73
2023-03-11T13:06:22.146Z,26.70
2023-03-11T13:08:57.950Z,34.03
2023-03-11T13:11:36.677Z,32.88
2023-03-11T13:14:21.522Z,31.17
2023-03-11T13:16:51.168Z,28.65
2023-03-11T13:19:29.821Z,29.20
2023-03-11T13:22:01.119Z,33.88
2023-03-11T13:24:33.599Z,32.28
2023-03-11T13:27:07.536Z,31.05
2023-03-11T13:29:59.238Z,34.03
2023-03-11T13:32:51.265Z,28.63
2023-03-11T13:35:36.203Z,35.58
2023-03-11T13:38:14.808Z,30.00
2023-03-11T13:40:45.588Z,31.77
2023-03-11T13:43:28.125Z,35.50
2023-03-11T13:46:06.042Z,30.95
2023-03-11T13:48:49.972Z,39.00
2023-03-11T13:51:34.710Z,31.40
2023-03-11T13:54:13.050Z,32.13
2023-03-11T13:56:48.279Z,32.08
2023-03-11T13:59:25.562Z,30.67
2023-03-11T14:02:10.392Z,31.60
2023-03-11T14:04:39.988Z,30.20
2023-03-11T14:07:17.140Z,33.15
2023-03-11T14:09:46.780Z,31.38
2023-03-11T14:12:18.658Z,28.80
2023-03-11T14:14:53.101Z,37.95
2023-03-11T14:17:22.706Z,31.58
2023-03-11T14:20:26.665Z,29.58
2023-03-11T14:22:57.023Z,28.50
2023-03-11T14:25:32.568Z,30.85
2023-03-11T14:28:04.474Z,30.95
2023-03-11T14:30:35.673Z,34.65
2023-03-11T14:33:20.529Z,33.85
2023-03-11T14:35:58.355Z,36.45
2023-03-11T14:38:32.775Z,31.45
2023-03-11T14:41:06.637Z,34.60
2023-03-11T14:43:37.415Z,31.42
2023-03-11T14:46:07.344Z,35.50
2023-03-11T14:48:41.656Z,38.72
2023-03-11T14:51:16.629Z,33.60
2023-03-11T14:53:48.730Z,31.08
2023-03-11T14:56:23.232Z,35.55
2023-03-11T14:59:17.018Z,36.22
2023-03-11T15:01:46.702Z,28.48
2023-03-11T15:04:36.702Z,29.02
2023-03-11T15:07:06.542Z,28.33
2023-03-11T15:09:36.139Z,32.63
2023-03-11T15:12:06.757Z,34.53
2023-03-11T15:14:39.780Z,29.50
2023-03-11T15:17:36.104Z,33.22
2023-03-11T15:20:43.194Z,30.20
2023-03-11T15:23:21.891Z,28.17
2023-03-11T15:25:51.706Z,32.75
2023-03-11T15:28:26.670Z,31.65
2023-03-11T15:31:22.049Z,31.10
2023-03-11T15:33:53.240Z,30.50
2023-03-11T15:36:41.542Z,30.95
2023-03-11T15:39:15.276Z,30.98
2023-03-11T15:41:45.980Z,32.60
2023-03-11T15:44:26.109Z,30.23
2023-03-11T15:46:55.806Z,29.92
2023-03-11T15:49:25.387Z,29.77
2023-03-11T15:51:55.058Z,31.20
2023-03-11T15:54:24.685Z,31.17
2023-03-11T15:56:54.275Z,31.33
2023-03-11T15:59:23.986Z,28.10
2023-03-11T16:01:53.546Z,32.90
2023-03-11T16:04:23.505Z,33.22
2023-03-11T16:07:07.111Z,35.97
2023-03-11T16:09:37.293Z,33.53
2023-03-11T16:12:26.921Z,33.08
2023-03-11T16:14:56.583Z,31.23
2023-03-11T16:17:26.621Z,34.67
2023-03-11T16:19:58.209Z,35.03
2023-03-11T16:22:33.593Z,36.63
2023-03-11T16:25:03.769Z,26.33
2023-03-11T16:27:33.335Z,38.85
2023-03-11T16:30:03.186Z,36.58
2023-03-11T16:32:32.898Z,34.35
2023-03-11T16:35:02.554Z,33.30
2023-03-11T16:37:32.153Z,42.13
2023-03-11T16:40:01.865Z,36.05
2023-03-11T16:42:31.484Z,33.63
2023-03-11T16:45:03.483Z,31.15
2023-03-11T16:47:33.487Z,40.70
2023-03-11T16:50:03.129Z,37.90
2023-03-11T16:52:33.129Z,34.33
2023-03-11T16:55:02.790Z,38.10
2023-03-11T16:57:32.424Z,37.17
2023-03-11T17:00:02.020Z,34.13
2023-03-11T17:02:31.646Z,36.20
2023-03-11T17:05:01.946Z,40.00
2023-03-11T17:07:31.495Z,36.15
2023-03-11T17:10:01.508Z,43.83
2023-03-11T17:12:31.268Z,40.28
2023-03-11T17:15:00.901Z,38.47
2023-03-11T17:17:30.565Z,37.08
2023-03-11T17:20:00.244Z,41.25
2023-03-11T17:22:29.876Z,36.25
2023-03-11T17:24:59.463Z,41.35
2023-03-11T17:27:33.656Z,37.50
2023-03-11T17:32:33.139Z,35.90
2023-03-11T17:35:02.969Z,36.55
2023-03-11T17:37:32.670Z,41.90
2023-03-11T17:40:02.332Z,42.10
2023-03-11T17:42:31.619Z,40.05
2023-03-11T17:45:01.306Z,45.42
2023-03-11T17:47:31.009Z,43.35
2023-03-11T17:50:00.707Z,43.63
2023-03-11T17:52:30.341Z,39.70
2023-03-11T17:55:00.049Z,42.35
2023-03-11T17:57:32.201Z,44.45
2023-03-11T18:00:07.413Z,40.45
2023-03-11T18:02:36.981Z,44.20
2023-03-11T18:05:06.921Z,41.70
2023-03-11T18:07:40.407Z,41.47
2023-03-11T18:10:10.774Z,43.60
2023-03-11T18:12:40.689Z,43.40
2023-03-11T18:15:16.006Z,44.20
2023-03-11T18:17:45.632Z,43.40
2023-03-11T18:20:15.460Z,41.30
2023-03-11T18:22:48.275Z,46.92
2023-03-11T18:25:17.891Z,39.95
2023-03-11T18:27:47.480Z,36.83
2023-03-11T18:30:17.322Z,45.53
2023-03-11T18:32:47.060Z,43.05
2023-03-11T18:35:19.049Z,40.80
2023-03-11T18:37:48.617Z,42.70
2023-03-11T18:40:18.290Z,46.88
2023-03-11T18:42:47.888Z,41.42
2023-03-11T18:45:16.804Z,47.97
2023-03-11T18:47:46.382Z,45.03
2023-03-11T18:50:15.955Z,45.55
2023-03-11T18:52:45.571Z,44.97
2023-03-11T18:55:15.246Z,42.25
2023-03-11T18:57:44.873Z,45.80
2023-03-11T19:00:14.994Z,46.63
2023-03-11T19:02:45.070Z,47.42
2023-03-11T19:05:14.693Z,47.25
2023-03-11T19:07:44.328Z,41.58
2023-03-11T19:10:14.235Z,46.03
2023-03-11T19:12:44.779Z,38.88
2023-03-11T19:15:14.933Z,45.38
2023-03-11T19:17:46.627Z,45.88
2023-03-11T19:20:21.365Z,42.78
2023-03-11T19:22:51.050Z,44.03
2023-03-11T19:25:22.698Z,45.55
2023-03-11T19:27:52.260Z,43.72
2023-03-11T19:30:22.693Z,46.33
2023-03-11T19:32:55.485Z,44.40
2023-03-11T19:35:25.685Z,47.25
2023-03-11T19:37:57.961Z,43.75
2023-03-11T19:40:31.314Z,49.65
2023-03-11T19:43:01.285Z,42.83
2023-03-11T19:45:34.252Z,43.55
2023-03-11T19:48:03.946Z,42.90
2023-03-11T19:50:33.484Z,43.85
2023-03-11T19:53:03.159Z,42.22
2023-03-11T19:55:32.872Z,45.80
2023-03-11T19:58:02.484Z,47.15
2023-03-11T20:00:32.142Z,44.55
2023-03-11T20:03:03.807Z,44.45
2023-03-11T20:05:33.461Z,44.28
2023-03-11T20:08:03.050Z,41.80
2023-03-11T20:10:32.997Z,44.08
2023-03-11T20:13:03.980Z,40.88
2023-03-11T20:15:33.681Z,45.15
2023-03-11T20:18:04.992Z,45.08
2023-03-11T20:20:34.886Z,45.10
2023-03-11T20:23:03.816Z,38.65
2023-03-11T20:25:33.895Z,45.47
2023-03-11T20:28:03.619Z,43.45
2023-03-11T20:30:33.218Z,43.50
2023-03-11T20:33:02.955Z,45.83
2023-03-11T20:35:32.787Z,47.83
2023-03-11T20:38:02.634Z,42.00
2023-03-11T20:40:31.622Z,40.05
2023-03-11T20:43:00.536Z,47.22
2023-03-11T20:45:30.376Z,41.97
2023-03-11T20:48:00.031Z,45.90
2023-03-11T20:50:29.604Z,39.40
2023-03-11T20:52:59.413Z,44.58
2023-03-11T20:55:28.987Z,46.22
2023-03-11T20:57:58.727Z,46.47
2023-03-11T21:00:28.384Z,46.80
2023-03-11T21:02:57.367Z,49.20
2023-03-11T21:05:26.932Z,49.50
2023-03-11T21:07:56.556Z,49.15
2023-03-11T21:10:26.207Z,47.78
2023-03-11T21:12:56.037Z,48.25
2023-03-11T21:15:25.668Z,50.05
2023-03-11T21:17:55.237Z,53.22
2023-03-11T21:20:25.177Z,44.35
2023-03-11T21:22:54.813Z,48.15
2023-03-11T21:25:24.549Z,52.13
2023-03-11T21:27:54.376Z,46.97
2023-03-11T21:30:24.046Z,49.75
2023-03-11T21:32:53.761Z,43.47
2023-03-11T21:35:23.503Z,48.70
2023-03-11T21:37:53.443Z,52.35
2023-03-11T21:40:23.180Z,54.85
2023-03-11T21:42:53.032Z,53.00
2023-03-11T21:45:22.685Z,49.53
2023-03-11T21:47:52.341Z,58.55
2023-03-11T21:50:22.042Z,53.38
2023-03-11T21:52:51.652Z,54.03
2023-03-11T21:55:21.380Z,53.97
2023-03-11T21:57:51.090Z,52.28
2023-03-11T22:00:21.031Z,55.60
2023-03-11T22:02:50.690Z,59.55
2023-03-11T22:05:20.474Z,65.88
2023-03-11T22:07:50.171Z,59.30
2023-03-11T22:10:20.192Z,60.30
2023-03-11T22:12:50.013Z,61.17
2023-03-11T22:15:19.850Z,66.32
2023-03-11T22:17:49.584Z,66.20
2023-03-11T22:20:19.657Z,56.60
2023-03-11T22:22:49.295Z,61.85
2023-03-11T22:25:19.036Z,56.65
2023-03-11T22:27:48.620Z,64.20
2023-03-11T22:30:18.328Z,58.92
2023-03-11T22:32:48.025Z,62.03
2023-03-11T22:35:18.124Z,60.30
2023-03-11T22:37:47.744Z,64.00
2023-03-11T22:40:17.328Z,67.93
2023-03-11T22:42:46.854Z,62.15
2023-03-11T22:45:16.453Z,59.58
2023-03-11T22:47:46.024Z,60.40
2023-03-11T22:50:15.585Z,60.85
2023-03-11T22:52:45.149Z,65.05
2023-03-11T22:55:14.789Z,66.55
2023-03-11T22:57:44.442Z,58.15
2023-03-11T23:00:18.624Z,67.43
2023-03-11T23:05:17.796Z,57.95
2023-03-11T23:07:47.420Z,63.40
2023-03-11T23:10:19.091Z,55.60
2023-03-11T23:12:50.545Z,58.30
2023-03-11T23:15:20.708Z,55.63
2023-03-11T23:17:50.405Z,56.85
2023-03-11T23:20:20.206Z,57.53
2023-03-11T23:22:49.780Z,56.38
2023-03-11T23:25:19.662Z,55.92
2023-03-11T23:27:49.312Z,51.30
2023-03-11T23:30:18.987Z,50.35
2023-03-11T23:32:48.641Z,47.80
2023-03-11T23:35:18.196Z,49.47
2023-03-11T23:37:51.806Z,50.83
2023-03-11T23:40:21.428Z,49.47
2023-03-11T23:42:52.204Z,47.42
2023-03-11T23:45:21.854Z,45.70
2023-03-11T23:47:51.480Z,43.40
2023-03-11T23:50:21.135Z,42.35
2023-03-11T23:52:50.723Z,44.50
2023-03-11T23:55:20.306Z,43.47
2023-03-11T23:57:49.922Z,41.90
